Hyderabad Weather



Hyderabad's Current Weather

Temprature 24.84o broken clouds

broken clouds

Rain: 0 %

Min Temprature24.84o
Max Temprature24.84o
Humidity25
Wind Speed5.78 m/h
Sun Rise07:11:54
Sun Set18:06:03
Current Time: 27-Jan-2020 18:28:04
Lat/Lon: 25.39, 68.37




Hyderabad's Geo Location



Hyderabad's Weather Forecast

Time Overall Temp Min Temp Max Temp Humidity Wind Speed Rain
27-Jan-2020 (Mon)
20:00:00 broken clouds 21.850 21.850 21.850 29 5.75 m/h 0 %
23:00:00 scattered clouds 18.650 18.650 18.650 40 5.27 m/h 0 %
28-Jan-2020 (Tue)
02:00:00 clear sky 17.030 17.030 17.030 50 3.67 m/h 0 %
05:00:00 clear sky 15.060 15.060 15.060 60 7.06 m/h 0 %
08:00:00 clear sky 14.190 14.190 14.190 62 5.05 m/h 0 %
11:00:00 clear sky 21.060 21.060 21.060 37 5.43 m/h 0 %
14:00:00 clear sky 23.850 23.850 23.850 23 3.2 m/h 0 %
17:00:00 clear sky 23.420 23.420 23.420 22 3.67 m/h 0 %
20:00:00 clear sky 18.340 18.340 18.340 34 3.1 m/h 0 %
23:00:00 clear sky 15.380 15.380 15.380 39 1.59 m/h 0 %
29-Jan-2020 (Wed)
02:00:00 clear sky 13.720 13.720 13.720 44 0.26 m/h 0 %
05:00:00 clear sky 13.240 13.240 13.240 52 1.06 m/h 0 %
08:00:00 clear sky 15.650 15.650 15.650 41 2.01 m/h 0 %
11:00:00 clear sky 22.000 22.000 22.000 27 2.55 m/h 0 %
14:00:00 clear sky 24.310 24.310 24.310 19 1.63 m/h 0 %
17:00:00 clear sky 24.440 24.440 24.440 18 1.5 m/h 0 %
20:00:00 clear sky 18.520 18.520 18.520 25 2.37 m/h 0 %
23:00:00 clear sky 15.870 15.870 15.870 32 0.63 m/h 0 %
30-Jan-2020 (Thu)
02:00:00 clear sky 14.830 14.830 14.830 33 1.89 m/h 0 %
05:00:00 clear sky 13.760 13.760 13.760 34 2.93 m/h 0 %
08:00:00 clear sky 13.910 13.910 13.910 36 2.85 m/h 0 %
11:00:00 clear sky 21.530 21.530 21.530 23 1.91 m/h 0 %
14:00:00 few clouds 24.720 24.720 24.720 18 2.54 m/h 0 %
17:00:00 clear sky 24.850 24.850 24.850 17 0.92 m/h 0 %
20:00:00 clear sky 17.460 17.460 17.460 27 0.58 m/h 0 %
23:00:00 clear sky 17.550 17.550 17.550 40 4.14 m/h 0 %
31-Jan-2020 (Fri)
02:00:00 clear sky 15.900 15.900 15.900 43 2.7 m/h 0 %
05:00:00 clear sky 14.480 14.480 14.480 48 2.14 m/h 0 %
08:00:00 clear sky 14.400 14.400 14.400 37 2.45 m/h 0 %
11:00:00 clear sky 21.420 21.420 21.420 23 1.72 m/h 0 %
14:00:00 clear sky 24.680 24.680 24.680 15 2.12 m/h 0 %
17:00:00 clear sky 24.670 24.670 24.670 15 3.16 m/h 0 %
20:00:00 clear sky 19.110 19.110 19.110 21 4.22 m/h 0 %
23:00:00 clear sky 17.130 17.130 17.130 25 3.54 m/h 0 %
01-Feb-2020 (Sat)
02:00:00 clear sky 14.540 14.540 14.540 30 3.3 m/h 0 %
05:00:00 clear sky 13.000 13.000 13.000 35 3.32 m/h 0 %
08:00:00 clear sky 13.590 13.590 13.590 37 4.19 m/h 0 %
11:00:00 clear sky 22.140 22.140 22.140 20 4.31 m/h 0 %
14:00:00 clear sky 26.140 26.140 26.140 12 4.38 m/h 0 %
17:00:00 clear sky 25.350 25.350 25.350 12 5.02 m/h 0 %


Hyderabad's Tourist Spots

Museums in Hyderabad

Famous Cities (61)